Costa Rican Star — A8KK4 — position and weather

sailwx.info

Track history (hours):
 
Tides and Currents Weather Stations Pressure Air Temp Water Temp Dewpoint Dewpoint Depression Visibility Wind Speed Wind Dir Waves Ship Positions

Costa Rican Star

Last reported at 2018-Apr-24 14:47 UTC. Time now 2018-Apr-27 05:01 UTC.
Position N 27°34' W 015°14'.

Length 185 m; draft 8.6 m.

Type: Cargo ship. MMSI: 636013073.

Date/timePositionNaut miles runAvg speedWind from/ knotsBaromVisibWave heightAir tempDewpointWater temp
2018-Apr-24 14:47N 27°34' W 015°14'516.3
2018-Apr-24 14:30N 27°38' W 015°12'816.6
2018-Apr-24 14:00N 27°46' W 015°09'816.3
2018-Apr-24 13:31N 27°53' W 015°06'816.1
2018-Apr-24 13:00N 28°01' W 015°03'816.0
2018-Apr-24 12:31N 28°08' W 014°60'815.9
2018-Apr-24 12:00N 28°16' W 014°57'815.9
2018-Apr-24 11:31N 28°24' W 014°54'816.1
2018-Apr-24 11:01N 28°31' W 014°52'  
2018-Apr-21 02:48N 48°20' W 006°15'7615.7
2018-Apr-20 21:57N 49°14' W 004°53'714.8
2018-Apr-20 21:30N 49°18' W 004°44'914.1
2018-Apr-20 20:50N 49°23' W 004°32'413.7
2018-Apr-20 20:30N 49°25' W 004°26'1113.6
2018-Apr-20 19:42N 49°30' W 004°11'313.8
2018-Apr-20 19:30N 49°31' W 004°08'914.0
2018-Apr-20 18:51N 49°36' W 003°56'514.5
2018-Apr-20 18:29N 49°39' W 003°48'715.2
2018-Apr-20 18:00N 49°43' W 003°39'815.9
2018-Apr-20 17:30N 49°47' W 003°28'816.6
2018-Apr-20 17:00N 49°51' W 003°17'917.4
2018-Apr-20 16:31N 49°55' W 003°05'1019.1
2018-Apr-20 16:01N 49°59' W 002°52'1121.1
2018-Apr-20 15:30N 50°03' W 002°37'1320.6
2018-Apr-20 14:53N 50°06' W 002°17'820.1
2018-Apr-20 14:30N 50°08' W 002°06'1019.3
2018-Apr-20 14:00N 50°11' W 001°51'917.8
2018-Apr-20 13:30N 50°13' W 001°38'917.1
2018-Apr-20 13:00N 50°15' W 001°25'816.2
2018-Apr-20 12:31N 50°17' W 001°13'815.5
2018-Apr-20 12:00N 50°19' W 001°01'714.2
2018-Apr-20 11:31N 50°21' W 000°51'714.1
2018-Apr-20 11:00N 50°23' W 000°40'714.5
2018-Apr-20 10:30N 50°25' W 000°29'815.3
2018-Apr-20 10:00N 50°27' W 000°17'815.7
2018-Apr-20 09:30N 50°29' W 000°05'816.4
2018-Apr-20 09:01N 50°31' E 000°07'917.2
2018-Apr-20 08:30N 50°34' E 000°20'917.8
2018-Apr-20 08:01N 50°37' E 000°33'917.6
2018-Apr-20 07:31N 50°42' E 000°45'917.6
2018-Apr-20 07:01N 50°47' E 000°56'917.2
2018-Apr-20 06:30N 50°53' E 001°06'816.6
2018-Apr-20 06:00N 50°58' E 001°16'815.1
2018-Apr-20 05:30N 51°03' E 001°25'714.2
2018-Apr-20 05:01N 51°08' E 001°33'713.1
2018-Apr-20 04:30N 51°12' E 001°41'713.0
2018-Apr-20 04:00N 51°17' E 001°49'612.7
2018-Apr-20 03:31N 51°22' E 001°55'611.4
2018-Apr-20 03:01N 51°24' E 002°03'714.2
2018-Apr-20 02:30N 51°21' E 002°13'712.9
2018-Apr-20 02:00N 51°22' E 002°24'713.4
2018-Apr-20 01:30N 51°23' E 002°34'612.0
2018-Apr-20 01:00N 51°22' E 002°44'611.8
2018-Apr-20 00:30N 51°23' E 002°54'611.8
2018-Apr-20 00:00N 51°24' E 003°02'611.3
2018-Apr-19 23:30N 51°24' E 003°11'611.4
2018-Apr-19 23:00N 51°25' E 003°21'611.2
2018-Apr-19 22:30N 51°25' E 003°30'510.0
2018-Apr-19 22:00N 51°26' E 003°37'510.8
2018-Apr-19 21:30N 51°23' E 003°44'712.9
2018-Apr-19 21:00N 51°22' E 003°54'612.1
2018-Apr-19 20:30N 51°26' E 004°01'511.1
2018-Apr-19 20:00N 51°22' E 004°07'4 9.0
2018-Apr-19 19:30N 51°21' E 004°14'5 9.8
2018-Apr-19 19:00N 51°17' E 004°19'2 4.4
2018-Apr-19 18:30N 51°16' E 004°17'0 0.0
2018-Apr-19 18:00N 51°16' E 004°17'1 2.4
2018-Apr-19 17:31N 51°16' E 004°15'0 0.4
2018-Apr-19 16:58N 51°16' E 004°15'0 0.0
2018-Apr-19 16:28N 51°16' E 004°15'0 0.0
2018-Apr-19 15:58N 51°16' E 004°15'0 0.0
2018-Apr-19 15:28N 51°16' E 004°15'0 0.0
2018-Apr-19 14:58N 51°16' E 004°15'0 0.0
2018-Apr-19 14:25N 51°16' E 004°15'0 0.0
2018-Apr-19 13:58N 51°16' E 004°15'0 0.0
2018-Apr-19 13:25N 51°16' E 004°15'0 0.0
2018-Apr-19 12:58N 51°16' E 004°15'0 0.0
2018-Apr-19 12:28N 51°16' E 004°15'0 0.0
2018-Apr-19 11:55N 51°16' E 004°15'0 0.0
2018-Apr-19 11:28N 51°16' E 004°15'0 0.0
2018-Apr-19 10:55N 51°16' E 004°15'0 0.0
2018-Apr-19 10:28N 51°16' E 004°15'0 0.0
2018-Apr-19 09:55N 51°16' E 004°15'0 0.0
2018-Apr-19 09:19N 51°16' E 004°15'0 0.0
2018-Apr-19 08:58N 51°16' E 004°15'0 0.0
2018-Apr-19 08:25N 51°16' E 004°15'0 0.0
2018-Apr-19 07:55N 51°16' E 004°15'0 0.0
2018-Apr-19 07:28N 51°16' E 004°15'0 0.0
2018-Apr-19 06:58N 51°16' E 004°15'0 0.0
2018-Apr-19 06:25N 51°16' E 004°15'0 0.0
2018-Apr-19 05:55N 51°16' E 004°15'0 0.0
2018-Apr-19 05:28N 51°16' E 004°15'0 0.0
2018-Apr-19 04:58N 51°16' E 004°15'0 0.0
2018-Apr-19 04:28N 51°16' E 004°15'0 0.0
2018-Apr-19 03:58N 51°16' E 004°15'0 0.0
2018-Apr-19 03:28N 51°16' E 004°15'0 0.0
2018-Apr-19 02:58N 51°16' E 004°15'0 0.0
2018-Apr-19 02:28N 51°16' E 004°15'0 0.0
2018-Apr-19 01:55N 51°16' E 004°15'0 0.0
2018-Apr-19 01:28N 51°16' E 004°15'0 0.0
2018-Apr-19 00:58N 51°16' E 004°15'0 0.0
2018-Apr-19 00:28N 51°16' E 004°15'0 0.0
2018-Apr-18 23:58N 51°16' E 004°15'0 0.0
2018-Apr-18 23:28N 51°16' E 004°15'0 0.0
2018-Apr-18 22:58N 51°16' E 004°15'0 0.0
2018-Apr-18 22:25N 51°16' E 004°15'0 0.0
2018-Apr-18 21:58N 51°16' E 004°15'0 0.0
2018-Apr-18 21:19N 51°16' E 004°15'0 0.0
2018-Apr-18 20:58N 51°16' E 004°15'0 0.0
2018-Apr-18 20:28N 51°16' E 004°15'0 0.0
2018-Apr-18 19:55N 51°16' E 004°15'0 0.0
2018-Apr-18 19:28N 51°16' E 004°15'0 0.0
2018-Apr-18 18:58N 51°16' E 004°15'0 0.0
2018-Apr-18 18:28N 51°16' E 004°15'0 0.0
2018-Apr-18 17:58N 51°16' E 004°15'0 0.0
2018-Apr-18 17:28N 51°16' E 004°15'0 0.0
2018-Apr-18 16:58N 51°16' E 004°15'0 0.0
2018-Apr-18 16:28N 51°16' E 004°15'0 0.0
2018-Apr-18 15:52N 51°16' E 004°15'0 0.0
2018-Apr-18 15:28N 51°16' E 004°15'0 0.0
2018-Apr-18 14:52N 51°16' E 004°15'0 0.0
2018-Apr-18 14:25N 51°16' E 004°15'0 0.0
2018-Apr-18 13:58N 51°16' E 004°15'0 0.0
2018-Apr-18 13:28N 51°16' E 004°15'0 0.0
2018-Apr-18 12:58N 51°16' E 004°15'0 0.0
2018-Apr-18 12:28N 51°16' E 004°15'0 0.0
2018-Apr-18 11:55N 51°16' E 004°15'0 0.0
2018-Apr-18 11:25N 51°16' E 004°15'0 0.0
2018-Apr-18 10:49N 51°16' E 004°15'0 0.0
2018-Apr-18 10:25N 51°16' E 004°15'0 0.0
2018-Apr-18 09:58N 51°16' E 004°15'0 0.0
2018-Apr-18 09:25N 51°16' E 004°15'0 0.0
2018-Apr-18 08:58N 51°16' E 004°15'0 0.0
2018-Apr-18 08:22N 51°16' E 004°15'0 0.0
2018-Apr-18 07:52N 51°16' E 004°15'0 0.0
2018-Apr-18 07:28N 51°16' E 004°15'0 0.0
2018-Apr-18 06:55N 51°16' E 004°15'0 0.0
2018-Apr-18 06:28N 51°16' E 004°15'0 0.0
2018-Apr-18 05:58N 51°16' E 004°15'0 0.0
2018-Apr-18 05:28N 51°16' E 004°15'0 0.0
2018-Apr-18 04:58N 51°16' E 004°15'0 0.0
2018-Apr-18 04:25N 51°16' E 004°15'0 0.0
2018-Apr-18 03:58N 51°16' E 004°15'0 0.0
2018-Apr-18 03:28N 51°16' E 004°15'0 0.0
2018-Apr-18 02:58N 51°16' E 004°15'0 0.0
2018-Apr-18 02:28N 51°16' E 004°15'0 0.0
2018-Apr-18 01:58N 51°16' E 004°15'0 0.0
2018-Apr-18 01:28N 51°16' E 004°15'0 0.0
2018-Apr-18 00:58N 51°16' E 004°15'0 0.0
2018-Apr-18 00:28N 51°16' E 004°15'0 0.0
2018-Apr-17 23:58N 51°16' E 004°15'0 0.0
2018-Apr-17 23:22N 51°16' E 004°15'0 0.0
2018-Apr-17 22:55N 51°16' E 004°15'0 0.0
2018-Apr-17 22:25N 51°16' E 004°15'0 0.0
2018-Apr-17 21:55N 51°16' E 004°15'0 0.0
2018-Apr-17 21:28N 51°16' E 004°15'0 0.0
2018-Apr-17 20:58N 51°16' E 004°15'0 0.0
2018-Apr-17 20:28N 51°16' E 004°15'0 0.0
2018-Apr-17 19:58N 51°16' E 004°15'0 0.0
2018-Apr-17 19:22N 51°16' E 004°15'0 0.0
2018-Apr-17 18:58N 51°16' E 004°15'0 0.0
2018-Apr-17 18:22N 51°16' E 004°15'0 0.0
2018-Apr-17 17:55N 51°16' E 004°15'0 0.0
2018-Apr-17 17:28N 51°16' E 004°15'0 0.0
2018-Apr-17 16:58N 51°16' E 004°15'0 0.0
2018-Apr-17 16:28N 51°16' E 004°15'0 0.0
2018-Apr-17 15:58N 51°16' E 004°15'0 0.0
2018-Apr-17 15:28N 51°16' E 004°15'0 0.0
2018-Apr-17 14:58N 51°16' E 004°15'0 0.0
2018-Apr-17 14:25N 51°16' E 004°15'0 0.0
2018-Apr-17 13:55N 51°16' E 004°15'0 0.0
2018-Apr-17 13:28N 51°16' E 004°15'0 0.0
2018-Apr-17 12:58N 51°16' E 004°15'0 0.0
2018-Apr-17 12:22N 51°16' E 004°15'0 0.0
2018-Apr-17 11:58N 51°16' E 004°15'0 0.0
2018-Apr-17 11:28N 51°16' E 004°15'0 0.0
2018-Apr-17 10:58N 51°16' E 004°15'0 0.0
2018-Apr-17 10:25N 51°16' E 004°15'0 0.0
2018-Apr-17 09:55N 51°16' E 004°15'0 0.0
2018-Apr-17 09:28N 51°16' E 004°15'0 0.0
2018-Apr-17 08:58N 51°16' E 004°15'0 0.0
2018-Apr-17 08:28N 51°16' E 004°15'0 0.0
2018-Apr-17 07:58N 51°16' E 004°15'0 0.0
2018-Apr-17 07:28N 51°16' E 004°15'0 0.0
2018-Apr-17 06:58N 51°16' E 004°15'0 0.0
2018-Apr-17 06:25N 51°16' E 004°15'0 0.0
2018-Apr-17 05:58N 51°16' E 004°15'0 0.0
2018-Apr-17 05:28N 51°16' E 004°15'0 0.0
2018-Apr-17 04:58N 51°16' E 004°15'0 0.0
2018-Apr-17 04:28N 51°16' E 004°15'0 0.0
2018-Apr-17 03:52N 51°16' E 004°15'0 0.0
2018-Apr-17 03:28N 51°16' E 004°15'0 0.0
2018-Apr-17 02:58N 51°16' E 004°15'0 0.0
2018-Apr-17 02:28N 51°16' E 004°15'0 0.0
2018-Apr-17 01:58N 51°16' E 004°15'0 0.0
2018-Apr-17 01:28N 51°16' E 004°15'1 1.8
2018-Apr-17 01:01N 51°17' E 004°15'0 0.2
2018-Apr-17 00:30N 51°17' E 004°15'0 0.0
2018-Apr-17 00:01N 51°17' E 004°15'0 0.0
2018-Apr-16 23:30N 51°17' E 004°15'2 3.2
2018-Apr-16 23:01N 51°18' E 004°16'4 7.7
2018-Apr-16 22:30N 51°22' E 004°14'4 7.9
2018-Apr-16 22:00N 51°22' E 004°07'510.0
2018-Apr-16 21:30N 51°26' E 004°01'510.4
2018-Apr-16 21:00N 51°22' E 003°55'611.1
2018-Apr-16 20:31N 51°21' E 003°47'510.9
2018-Apr-16 20:00N 51°26' E 003°41'4 8.0
2018-Apr-16 19:30N 51°26' E 003°35'510.1
2018-Apr-16 19:00N 51°25' E 003°27'612.6
2018-Apr-16 18:31N 51°24' E 003°17'612.8
2018-Apr-16 18:00N 51°24' E 003°07'713.3
2018-Apr-16 17:30N 51°23' E 002°56'713.7
2018-Apr-16 17:00N 51°22' E 002°45'4 7.5
2018-Apr-16 16:30N 51°22' E 002°39'611.1
2018-Apr-16 16:00N 51°22' E 002°30'814.2
2018-Apr-16 15:28N 51°19' E 002°19'816.8
2018-Apr-16 15:00N 51°15' E 002°08'917.3
2018-Apr-16 14:30N 51°10' E 001°57'917.7
2018-Apr-16 14:00N 51°05' E 001°45'918.3
2018-Apr-16 13:30N 50°58' E 001°35'1018.9
2018-Apr-16 12:59N 50°50' E 001°27'3916.7
2018-Apr-16 10:40N 50°28' E 000°38'317.3
2018-Apr-16 10:30N 50°27' E 000°33'917.5
2018-Apr-16 10:00N 50°25' E 000°20'918.3
2018-Apr-16 09:30N 50°22' E 000°06'917.7
2018-Apr-16 09:00N 50°22' W 000°08'917.6
2018-Apr-16 08:30N 50°26' W 000°20'917.6
2018-Apr-16 08:00N 50°30' W 000°32'917.8
2018-Apr-16 07:30N 50°34' W 000°45'917.9
2018-Apr-16 07:00N 50°38' W 000°58'612.0
2018-Apr-16 06:30N 50°43' W 001°02'511.0
2018-Apr-16 06:00N 50°48' W 001°07'1 2.1
2018-Apr-16 05:30N 50°49' W 001°06'0 0.1
2018-Apr-16 04:59N 50°49' W 001°05'0 0.0
2018-Apr-16 04:29N 50°49' W 001°05'0 0.0
2018-Apr-16 03:59N 50°49' W 001°05'0 0.0
2018-Apr-16 03:29N 50°49' W 001°05'0 0.0
2018-Apr-16 02:59N 50°49' W 001°05'0 0.0
2018-Apr-16 02:29N 50°49' W 001°05'0 0.0
2018-Apr-16 01:59N 50°49' W 001°05'0 0.0
2018-Apr-16 01:29N 50°49' W 001°05'0 0.0
2018-Apr-16 00:59N 50°49' W 001°05'0 0.0
2018-Apr-16 00:29N 50°49' W 001°05'0 0.0
2018-Apr-15 23:59N 50°49' W 001°05'0 0.0
2018-Apr-15 23:29N 50°49' W 001°05'0 0.0
2018-Apr-15 22:59N 50°49' W 001°05'0 0.0
2018-Apr-15 22:29N 50°49' W 001°05'0 0.0
2018-Apr-15 21:59N 50°49' W 001°05'0 0.0
2018-Apr-15 21:29N 50°49' W 001°05'0 0.0
2018-Apr-15 20:59N 50°49' W 001°05'0 0.0
2018-Apr-15 20:29N 50°49' W 001°05'0 0.0
2018-Apr-15 19:59N 50°49' W 001°05'0 0.0
2018-Apr-15 19:29N 50°49' W 001°05'0 0.0
2018-Apr-15 18:59N 50°49' W 001°05'0 0.0
2018-Apr-15 18:29N 50°49' W 001°05'0 0.0
2018-Apr-15 17:59N 50°49' W 001°05'0 0.0
2018-Apr-15 17:29N 50°49' W 001°05'0 0.0
2018-Apr-15 16:59N 50°49' W 001°05'0 0.0
2018-Apr-15 16:29N 50°49' W 001°05'0 0.0
2018-Apr-15 15:59N 50°49' W 001°05'0 0.0
2018-Apr-15 15:29N 50°49' W 001°05'0 0.0
2018-Apr-15 14:59N 50°49' W 001°05'0 0.0
2018-Apr-15 14:29N 50°49' W 001°05'0 0.0
2018-Apr-15 13:59N 50°49' W 001°05'0 0.0
2018-Apr-15 13:29N 50°49' W 001°05'0 0.0
2018-Apr-15 12:59N 50°49' W 001°05'0 0.0
2018-Apr-15 12:29N 50°49' W 001°05'0 0.0
2018-Apr-15 11:59N 50°49' W 001°05'0 0.0
2018-Apr-15 11:29N 50°49' W 001°05'0 0.0
2018-Apr-15 10:59N 50°49' W 001°05'0 0.0
2018-Apr-15 10:29N 50°49' W 001°05'0 0.0
2018-Apr-15 09:59N 50°49' W 001°05'0 0.0
2018-Apr-15 09:29N 50°49' W 001°05'0 0.0
2018-Apr-15 08:59N 50°49' W 001°05'0 0.0
2018-Apr-15 08:29N 50°49' W 001°05'0 0.0
2018-Apr-15 07:59N 50°49' W 001°05'0 0.0
2018-Apr-15 07:29N 50°49' W 001°05'0 1.1
2018-Apr-15 07:00N 50°49' W 001°06'2 4.6
2018-Apr-15 06:30N 50°46' W 001°06'4 8.4
2018-Apr-15 06:00N 50°43' W 001°01'4 8.5
2018-Apr-15 05:30N 50°39' W 000°59'3 6.5
2018-Apr-15 05:00N 50°36' W 000°60'4 7.2
2018-Apr-15 04:30N 50°33' W 001°02'510.0
2018-Apr-15 04:00N 50°29' W 001°06'5 9.6
2018-Apr-15 03:30N 50°25' W 001°11'510.7
2018-Apr-15 03:00N 50°21' W 001°17'612.0
2018-Apr-15 02:30N 50°17' W 001°24'714.3
2018-Apr-15 02:00N 50°12' W 001°32'713.0
2018-Apr-15 01:31N 50°09' W 001°41'713.3
2018-Apr-15 01:00N 50°06' W 001°50'713.6
2018-Apr-15 00:30N 50°01' W 001°57'712.9
2018-Apr-15 00:00N 49°58' W 002°07'2513.6
2018-Apr-14 22:09N 49°52' W 002°44'214.7
2018-Apr-14 22:00N 49°51' W 002°48'2216.1
2018-Apr-14 20:39N 49°41' W 003°17'  
Track history (hours):
 
Tides and Currents Weather Stations Pressure Air Temp Water Temp Dewpoint Dewpoint Depression Visibility Wind Speed Wind Dir Waves Ship Positions

Costa Rican Star

Last reported at 2018-Apr-24 14:47 UTC. Time now 2018-Apr-27 05:01 UTC.
Position N 27°34' W 015°14'.

Length 185 m; draft 8.6 m.

Type: Cargo ship. MMSI: 636013073.

Date/timePositionNaut miles runAvg speedWind from/ knotsBaromVisibWave heightAir tempDewpointWater temp
2018-Apr-24 14:47N 27°34' W 015°14'516.3
2018-Apr-24 14:30N 27°38' W 015°12'816.6
2018-Apr-24 14:00N 27°46' W 015°09'816.3
2018-Apr-24 13:31N 27°53' W 015°06'816.1
2018-Apr-24 13:00N 28°01' W 015°03'816.0
2018-Apr-24 12:31N 28°08' W 014°60'815.9
2018-Apr-24 12:00N 28°16' W 014°57'815.9
2018-Apr-24 11:31N 28°24' W 014°54'816.1
2018-Apr-24 11:01N 28°31' W 014°52'  
2018-Apr-21 02:48N 48°20' W 006°15'7615.7
2018-Apr-20 21:57N 49°14' W 004°53'714.8
2018-Apr-20 21:30N 49°18' W 004°44'914.1
2018-Apr-20 20:50N 49°23' W 004°32'413.7
2018-Apr-20 20:30N 49°25' W 004°26'1113.6
2018-Apr-20 19:42N 49°30' W 004°11'313.8
2018-Apr-20 19:30N 49°31' W 004°08'914.0
2018-Apr-20 18:51N 49°36' W 003°56'514.5
2018-Apr-20 18:29N 49°39' W 003°48'715.2
2018-Apr-20 18:00N 49°43' W 003°39'815.9
2018-Apr-20 17:30N 49°47' W 003°28'816.6
2018-Apr-20 17:00N 49°51' W 003°17'917.4
2018-Apr-20 16:31N 49°55' W 003°05'1019.1
2018-Apr-20 16:01N 49°59' W 002°52'1121.1
2018-Apr-20 15:30N 50°03' W 002°37'1320.6
2018-Apr-20 14:53N 50°06' W 002°17'820.1
2018-Apr-20 14:30N 50°08' W 002°06'1019.3
2018-Apr-20 14:00N 50°11' W 001°51'917.8
2018-Apr-20 13:30N 50°13' W 001°38'917.1
2018-Apr-20 13:00N 50°15' W 001°25'816.2
2018-Apr-20 12:31N 50°17' W 001°13'815.5
2018-Apr-20 12:00N 50°19' W 001°01'714.2
2018-Apr-20 11:31N 50°21' W 000°51'714.1
2018-Apr-20 11:00N 50°23' W 000°40'714.5
2018-Apr-20 10:30N 50°25' W 000°29'815.3
2018-Apr-20 10:00N 50°27' W 000°17'815.7
2018-Apr-20 09:30N 50°29' W 000°05'816.4
2018-Apr-20 09:01N 50°31' E 000°07'917.2
2018-Apr-20 08:30N 50°34' E 000°20'917.8
2018-Apr-20 08:01N 50°37' E 000°33'917.6
2018-Apr-20 07:31N 50°42' E 000°45'917.6
2018-Apr-20 07:01N 50°47' E 000°56'917.2
2018-Apr-20 06:30N 50°53' E 001°06'816.6
2018-Apr-20 06:00N 50°58' E 001°16'815.1
2018-Apr-20 05:30N 51°03' E 001°25'714.2
2018-Apr-20 05:01N 51°08' E 001°33'713.1
2018-Apr-20 04:30N 51°12' E 001°41'713.0
2018-Apr-20 04:00N 51°17' E 001°49'612.7
2018-Apr-20 03:31N 51°22' E 001°55'611.4
2018-Apr-20 03:01N 51°24' E 002°03'714.2
2018-Apr-20 02:30N 51°21' E 002°13'712.9
2018-Apr-20 02:00N 51°22' E 002°24'713.4
2018-Apr-20 01:30N 51°23' E 002°34'612.0
2018-Apr-20 01:00N 51°22' E 002°44'611.8
2018-Apr-20 00:30N 51°23' E 002°54'611.8
2018-Apr-20 00:00N 51°24' E 003°02'611.3
2018-Apr-19 23:30N 51°24' E 003°11'611.4
2018-Apr-19 23:00N 51°25' E 003°21'611.2
2018-Apr-19 22:30N 51°25' E 003°30'510.0
2018-Apr-19 22:00N 51°26' E 003°37'510.8
2018-Apr-19 21:30N 51°23' E 003°44'712.9
2018-Apr-19 21:00N 51°22' E 003°54'612.1
2018-Apr-19 20:30N 51°26' E 004°01'511.1
2018-Apr-19 20:00N 51°22' E 004°07'4 9.0
2018-Apr-19 19:30N 51°21' E 004°14'5 9.8
2018-Apr-19 19:00N 51°17' E 004°19'2 4.4
2018-Apr-19 18:30N 51°16' E 004°17'0 0.0
2018-Apr-19 18:00N 51°16' E 004°17'1 2.4
2018-Apr-19 17:31N 51°16' E 004°15'0 0.4
2018-Apr-19 16:58N 51°16' E 004°15'0 0.0
2018-Apr-19 16:28N 51°16' E 004°15'0 0.0
2018-Apr-19 15:58N 51°16' E 004°15'0 0.0
2018-Apr-19 15:28N 51°16' E 004°15'0 0.0
2018-Apr-19 14:58N 51°16' E 004°15'0 0.0
2018-Apr-19 14:25N 51°16' E 004°15'0 0.0
2018-Apr-19 13:58N 51°16' E 004°15'0 0.0
2018-Apr-19 13:25N 51°16' E 004°15'0 0.0
2018-Apr-19 12:58N 51°16' E 004°15'0 0.0
2018-Apr-19 12:28N 51°16' E 004°15'0 0.0
2018-Apr-19 11:55N 51°16' E 004°15'0 0.0
2018-Apr-19 11:28N 51°16' E 004°15'0 0.0
2018-Apr-19 10:55N 51°16' E 004°15'0 0.0
2018-Apr-19 10:28N 51°16' E 004°15'0 0.0
2018-Apr-19 09:55N 51°16' E 004°15'0 0.0
2018-Apr-19 09:19N 51°16' E 004°15'0 0.0
2018-Apr-19 08:58N 51°16' E 004°15'0 0.0
2018-Apr-19 08:25N 51°16' E 004°15'0 0.0
2018-Apr-19 07:55N 51°16' E 004°15'0 0.0
2018-Apr-19 07:28N 51°16' E 004°15'0 0.0
2018-Apr-19 06:58N 51°16' E 004°15'0 0.0
2018-Apr-19 06:25N 51°16' E 004°15'0 0.0
2018-Apr-19 05:55N 51°16' E 004°15'0 0.0
2018-Apr-19 05:28N 51°16' E 004°15'0 0.0
2018-Apr-19 04:58N 51°16' E 004°15'0 0.0
2018-Apr-19 04:28N 51°16' E 004°15'0 0.0
2018-Apr-19 03:58N 51°16' E 004°15'0 0.0
2018-Apr-19 03:28N 51°16' E 004°15'0 0.0
2018-Apr-19 02:58N 51°16' E 004°15'0 0.0
2018-Apr-19 02:28N 51°16' E 004°15'0 0.0
2018-Apr-19 01:55N 51°16' E 004°15'0 0.0
2018-Apr-19 01:28N 51°16' E 004°15'0 0.0
2018-Apr-19 00:58N 51°16' E 004°15'0 0.0
2018-Apr-19 00:28N 51°16' E 004°15'0 0.0
2018-Apr-18 23:58N 51°16' E 004°15'0 0.0
2018-Apr-18 23:28N 51°16' E 004°15'0 0.0
2018-Apr-18 22:58N 51°16' E 004°15'0 0.0
2018-Apr-18 22:25N 51°16' E 004°15'0 0.0
2018-Apr-18 21:58N 51°16' E 004°15'0 0.0
2018-Apr-18 21:19N 51°16' E 004°15'0 0.0
2018-Apr-18 20:58N 51°16' E 004°15'0 0.0
2018-Apr-18 20:28N 51°16' E 004°15'0 0.0
2018-Apr-18 19:55N 51°16' E 004°15'0 0.0
2018-Apr-18 19:28N 51°16' E 004°15'0 0.0
2018-Apr-18 18:58N 51°16' E 004°15'0 0.0
2018-Apr-18 18:28N 51°16' E 004°15'0 0.0
2018-Apr-18 17:58N 51°16' E 004°15'0 0.0
2018-Apr-18 17:28N 51°16' E 004°15'0 0.0
2018-Apr-18 16:58N 51°16' E 004°15'0 0.0
2018-Apr-18 16:28N 51°16' E 004°15'0 0.0
2018-Apr-18 15:52N 51°16' E 004°15'0 0.0
2018-Apr-18 15:28N 51°16' E 004°15'0 0.0
2018-Apr-18 14:52N 51°16' E 004°15'0 0.0
2018-Apr-18 14:25N 51°16' E 004°15'0 0.0
2018-Apr-18 13:58N 51°16' E 004°15'0 0.0
2018-Apr-18 13:28N 51°16' E 004°15'0 0.0
2018-Apr-18 12:58N 51°16' E 004°15'0 0.0
2018-Apr-18 12:28N 51°16' E 004°15'0 0.0
2018-Apr-18 11:55N 51°16' E 004°15'0 0.0
2018-Apr-18 11:25N 51°16' E 004°15'0 0.0
2018-Apr-18 10:49N 51°16' E 004°15'0 0.0
2018-Apr-18 10:25N 51°16' E 004°15'0 0.0
2018-Apr-18 09:58N 51°16' E 004°15'0 0.0
2018-Apr-18 09:25N 51°16' E 004°15'0 0.0
2018-Apr-18 08:58N 51°16' E 004°15'0 0.0
2018-Apr-18 08:22N 51°16' E 004°15'0 0.0
2018-Apr-18 07:52N 51°16' E 004°15'0 0.0
2018-Apr-18 07:28N 51°16' E 004°15'0 0.0
2018-Apr-18 06:55N 51°16' E 004°15'0 0.0
2018-Apr-18 06:28N 51°16' E 004°15'0 0.0
2018-Apr-18 05:58N 51°16' E 004°15'0 0.0
2018-Apr-18 05:28N 51°16' E 004°15'0 0.0
2018-Apr-18 04:58N 51°16' E 004°15'0 0.0
2018-Apr-18 04:25N 51°16' E 004°15'0 0.0
2018-Apr-18 03:58N 51°16' E 004°15'0 0.0
2018-Apr-18 03:28N 51°16' E 004°15'0 0.0
2018-Apr-18 02:58N 51°16' E 004°15'0 0.0
2018-Apr-18 02:28N 51°16' E 004°15'0 0.0
2018-Apr-18 01:58N 51°16' E 004°15'0 0.0
2018-Apr-18 01:28N 51°16' E 004°15'0 0.0
2018-Apr-18 00:58N 51°16' E 004°15'0 0.0
2018-Apr-18 00:28N 51°16' E 004°15'0 0.0
2018-Apr-17 23:58N 51°16' E 004°15'0 0.0
2018-Apr-17 23:22N 51°16' E 004°15'0 0.0
2018-Apr-17 22:55N 51°16' E 004°15'0 0.0
2018-Apr-17 22:25N 51°16' E 004°15'0 0.0
2018-Apr-17 21:55N 51°16' E 004°15'0 0.0
2018-Apr-17 21:28N 51°16' E 004°15'0 0.0
2018-Apr-17 20:58N 51°16' E 004°15'0 0.0
2018-Apr-17 20:28N 51°16' E 004°15'0 0.0
2018-Apr-17 19:58N 51°16' E 004°15'0 0.0
2018-Apr-17 19:22N 51°16' E 004°15'0 0.0
2018-Apr-17 18:58N 51°16' E 004°15'0 0.0
2018-Apr-17 18:22N 51°16' E 004°15'0 0.0
2018-Apr-17 17:55N 51°16' E 004°15'0 0.0
2018-Apr-17 17:28N 51°16' E 004°15'0 0.0
2018-Apr-17 16:58N 51°16' E 004°15'0 0.0
2018-Apr-17 16:28N 51°16' E 004°15'0 0.0
2018-Apr-17 15:58N 51°16' E 004°15'0 0.0
2018-Apr-17 15:28N 51°16' E 004°15'0 0.0
2018-Apr-17 14:58N 51°16' E 004°15'0 0.0
2018-Apr-17 14:25N 51°16' E 004°15'0 0.0
2018-Apr-17 13:55N 51°16' E 004°15'0 0.0
2018-Apr-17 13:28N 51°16' E 004°15'0 0.0
2018-Apr-17 12:58N 51°16' E 004°15'0 0.0
2018-Apr-17 12:22N 51°16' E 004°15'0 0.0
2018-Apr-17 11:58N 51°16' E 004°15'0 0.0
2018-Apr-17 11:28N 51°16' E 004°15'0 0.0
2018-Apr-17 10:58N 51°16' E 004°15'0 0.0
2018-Apr-17 10:25N 51°16' E 004°15'0 0.0
2018-Apr-17 09:55N 51°16' E 004°15'0 0.0
2018-Apr-17 09:28N 51°16' E 004°15'0 0.0
2018-Apr-17 08:58N 51°16' E 004°15'0 0.0
2018-Apr-17 08:28N 51°16' E 004°15'0 0.0
2018-Apr-17 07:58N 51°16' E 004°15'0 0.0
2018-Apr-17 07:28N 51°16' E 004°15'0 0.0
2018-Apr-17 06:58N 51°16' E 004°15'0 0.0
2018-Apr-17 06:25N 51°16' E 004°15'0 0.0
2018-Apr-17 05:58N 51°16' E 004°15'0 0.0
2018-Apr-17 05:28N 51°16' E 004°15'0 0.0
2018-Apr-17 04:58N 51°16' E 004°15'0 0.0
2018-Apr-17 04:28N 51°16' E 004°15'0 0.0
2018-Apr-17 03:52N 51°16' E 004°15'0 0.0
2018-Apr-17 03:28N 51°16' E 004°15'0 0.0
2018-Apr-17 02:58N 51°16' E 004°15'0 0.0
2018-Apr-17 02:28N 51°16' E 004°15'0 0.0
2018-Apr-17 01:58N 51°16' E 004°15'0 0.0
2018-Apr-17 01:28N 51°16' E 004°15'1 1.8
2018-Apr-17 01:01N 51°17' E 004°15'0 0.2
2018-Apr-17 00:30N 51°17' E 004°15'0 0.0
2018-Apr-17 00:01N 51°17' E 004°15'0 0.0
2018-Apr-16 23:30N 51°17' E 004°15'2 3.2
2018-Apr-16 23:01N 51°18' E 004°16'4 7.7
2018-Apr-16 22:30N 51°22' E 004°14'4 7.9
2018-Apr-16 22:00N 51°22' E 004°07'510.0
2018-Apr-16 21:30N 51°26' E 004°01'510.4
2018-Apr-16 21:00N 51°22' E 003°55'611.1
2018-Apr-16 20:31N 51°21' E 003°47'510.9
2018-Apr-16 20:00N 51°26' E 003°41'4 8.0
2018-Apr-16 19:30N 51°26' E 003°35'510.1
2018-Apr-16 19:00N 51°25' E 003°27'612.6
2018-Apr-16 18:31N 51°24' E 003°17'612.8
2018-Apr-16 18:00N 51°24' E 003°07'713.3
2018-Apr-16 17:30N 51°23' E 002°56'713.7
2018-Apr-16 17:00N 51°22' E 002°45'4 7.5
2018-Apr-16 16:30N 51°22' E 002°39'611.1
2018-Apr-16 16:00N 51°22' E 002°30'814.2
2018-Apr-16 15:28N 51°19' E 002°19'816.8
2018-Apr-16 15:00N 51°15' E 002°08'917.3
2018-Apr-16 14:30N 51°10' E 001°57'917.7
2018-Apr-16 14:00N 51°05' E 001°45'918.3
2018-Apr-16 13:30N 50°58' E 001°35'1018.9
2018-Apr-16 12:59N 50°50' E 001°27'3916.7
2018-Apr-16 10:40N 50°28' E 000°38'317.3
2018-Apr-16 10:30N 50°27' E 000°33'917.5
2018-Apr-16 10:00N 50°25' E 000°20'918.3
2018-Apr-16 09:30N 50°22' E 000°06'917.7
2018-Apr-16 09:00N 50°22' W 000°08'917.6
2018-Apr-16 08:30N 50°26' W 000°20'917.6
2018-Apr-16 08:00N 50°30' W 000°32'917.8
2018-Apr-16 07:30N 50°34' W 000°45'917.9
2018-Apr-16 07:00N 50°38' W 000°58'612.0
2018-Apr-16 06:30N 50°43' W 001°02'511.0
2018-Apr-16 06:00N 50°48' W 001°07'1 2.1
2018-Apr-16 05:30N 50°49' W 001°06'0 0.1
2018-Apr-16 04:59N 50°49' W 001°05'0 0.0
2018-Apr-16 04:29N 50°49' W 001°05'0 0.0
2018-Apr-16 03:59N 50°49' W 001°05'0 0.0
2018-Apr-16 03:29N 50°49' W 001°05'0 0.0
2018-Apr-16 02:59N 50°49' W 001°05'0 0.0
2018-Apr-16 02:29N 50°49' W 001°05'0 0.0
2018-Apr-16 01:59N 50°49' W 001°05'0 0.0
2018-Apr-16 01:29N 50°49' W 001°05'0 0.0
2018-Apr-16 00:59N 50°49' W 001°05'0 0.0
2018-Apr-16 00:29N 50°49' W 001°05'0 0.0
2018-Apr-15 23:59N 50°49' W 001°05'0 0.0
2018-Apr-15 23:29N 50°49' W 001°05'0 0.0
2018-Apr-15 22:59N 50°49' W 001°05'0 0.0
2018-Apr-15 22:29N 50°49' W 001°05'0 0.0
2018-Apr-15 21:59N 50°49' W 001°05'0 0.0
2018-Apr-15 21:29N 50°49' W 001°05'0 0.0
2018-Apr-15 20:59N 50°49' W 001°05'0 0.0
2018-Apr-15 20:29N 50°49' W 001°05'0 0.0
2018-Apr-15 19:59N 50°49' W 001°05'0 0.0
2018-Apr-15 19:29N 50°49' W 001°05'0 0.0
2018-Apr-15 18:59N 50°49' W 001°05'0 0.0
2018-Apr-15 18:29N 50°49' W 001°05'0 0.0
2018-Apr-15 17:59N 50°49' W 001°05'0 0.0
2018-Apr-15 17:29N 50°49' W 001°05'0 0.0
2018-Apr-15 16:59N 50°49' W 001°05'0 0.0
2018-Apr-15 16:29N 50°49' W 001°05'0 0.0
2018-Apr-15 15:59N 50°49' W 001°05'0 0.0
2018-Apr-15 15:29N 50°49' W 001°05'0 0.0
2018-Apr-15 14:59N 50°49' W 001°05'0 0.0
2018-Apr-15 14:29N 50°49' W 001°05'0 0.0
2018-Apr-15 13:59N 50°49' W 001°05'0 0.0
2018-Apr-15 13:29N 50°49' W 001°05'0 0.0
2018-Apr-15 12:59N 50°49' W 001°05'0 0.0
2018-Apr-15 12:29N 50°49' W 001°05'0 0.0
2018-Apr-15 11:59N 50°49' W 001°05'0 0.0
2018-Apr-15 11:29N 50°49' W 001°05'0 0.0
2018-Apr-15 10:59N 50°49' W 001°05'0 0.0
2018-Apr-15 10:29N 50°49' W 001°05'0 0.0
2018-Apr-15 09:59N 50°49' W 001°05'0 0.0
2018-Apr-15 09:29N 50°49' W 001°05'0 0.0
2018-Apr-15 08:59N 50°49' W 001°05'0 0.0
2018-Apr-15 08:29N 50°49' W 001°05'0 0.0
2018-Apr-15 07:59N 50°49' W 001°05'0 0.0
2018-Apr-15 07:29N 50°49' W 001°05'0 1.1
2018-Apr-15 07:00N 50°49' W 001°06'2 4.6
2018-Apr-15 06:30N 50°46' W 001°06'4 8.4
2018-Apr-15 06:00N 50°43' W 001°01'4 8.5
2018-Apr-15 05:30N 50°39' W 000°59'3 6.5
2018-Apr-15 05:00N 50°36' W 000°60'4 7.2
2018-Apr-15 04:30N 50°33' W 001°02'510.0
2018-Apr-15 04:00N 50°29' W 001°06'5 9.6
2018-Apr-15 03:30N 50°25' W 001°11'510.7
2018-Apr-15 03:00N 50°21' W 001°17'612.0
2018-Apr-15 02:30N 50°17' W 001°24'714.3
2018-Apr-15 02:00N 50°12' W 001°32'713.0
2018-Apr-15 01:31N 50°09' W 001°41'713.3
2018-Apr-15 01:00N 50°06' W 001°50'713.6
2018-Apr-15 00:30N 50°01' W 001°57'712.9
2018-Apr-15 00:00N 49°58' W 002°07'2513.6
2018-Apr-14 22:09N 49°52' W 002°44'214.7
2018-Apr-14 22:00N 49°51' W 002°48'2216.1
2018-Apr-14 20:39N 49°41' W 003°17'  

Dump ship's entire track history